createdAt,value
2022-11-16T00:00:41.831Z,8.08
2022-11-16T00:02:13.905Z,8.05
2022-11-16T00:03:46.347Z,8.02
2022-11-16T00:05:21.160Z,7.99
2022-11-16T00:06:56.373Z,7.98
2022-11-16T00:08:31.804Z,7.98
2022-11-16T00:10:04.070Z,7.97
2022-11-16T00:11:36.377Z,7.97
2022-11-16T00:13:09.526Z,7.99
2022-11-16T00:14:41.423Z,7.98
2022-11-16T00:16:17.164Z,7.97
2022-11-16T00:17:51.931Z,7.96
2022-11-16T00:19:24.010Z,7.92
2022-11-16T00:20:55.879Z,7.91
2022-11-16T00:22:27.745Z,7.87
2022-11-16T00:23:59.728Z,7.85
2022-11-16T00:25:31.574Z,7.85
2022-11-16T00:27:03.467Z,7.84
2022-11-16T00:28:36.011Z,7.84
2022-11-16T00:30:10.227Z,7.84
2022-11-16T00:31:42.137Z,7.83
2022-11-16T00:33:15.174Z,7.83
2022-11-16T00:34:47.002Z,7.84
2022-11-16T00:36:18.909Z,7.84
2022-11-16T00:37:51.682Z,7.83
2022-11-16T00:39:23.509Z,7.81
2022-11-16T00:40:55.298Z,7.83
2022-11-16T00:42:27.145Z,7.81
2022-11-16T00:43:58.928Z,7.81
2022-11-16T00:45:30.757Z,7.82
2022-11-16T00:47:02.686Z,7.83
2022-11-16T00:48:34.865Z,7.84
2022-11-16T00:50:06.933Z,7.83
2022-11-16T00:51:38.875Z,7.85
2022-11-16T00:53:11.008Z,7.87
2022-11-16T00:54:42.878Z,7.86
2022-11-16T00:56:17.198Z,7.85
2022-11-16T00:57:49.104Z,7.86
2022-11-16T00:59:21.042Z,7.86
2022-11-16T01:00:52.941Z,7.86
2022-11-16T01:02:24.832Z,7.86
2022-11-16T01:03:56.935Z,7.87
2022-11-16T01:05:28.931Z,7.88
2022-11-16T01:07:00.848Z,7.89
2022-11-16T01:08:33.406Z,7.88
2022-11-16T01:10:06.240Z,7.91
2022-11-16T01:11:56.297Z,7.93
2022-11-16T01:13:28.131Z,7.93
2022-11-16T01:15:00.047Z,7.93
2022-11-16T01:16:32.242Z,7.91
2022-11-16T01:18:04.240Z,7.90
2022-11-16T01:19:36.915Z,7.88
2022-11-16T01:21:08.937Z,7.87
2022-11-16T01:22:40.944Z,7.88
2022-11-16T01:24:12.768Z,7.87
2022-11-16T01:25:44.701Z,7.88
2022-11-16T01:27:16.529Z,7.87
2022-11-16T01:28:48.412Z,7.86
2022-11-16T01:30:20.288Z,7.85
2022-11-16T01:31:52.338Z,7.85
2022-11-16T01:33:24.169Z,7.85
2022-11-16T01:34:55.938Z,7.82
2022-11-16T01:36:27.737Z,7.80
2022-11-16T01:38:00.287Z,7.80
2022-11-16T01:39:32.178Z,7.80
2022-11-16T01:41:03.980Z,7.80
2022-11-16T01:42:35.864Z,7.80
2022-11-16T01:44:27.851Z,7.79
2022-11-16T01:45:59.855Z,7.80
2022-11-16T01:47:31.874Z,7.80
2022-11-16T01:49:05.324Z,7.78
2022-11-16T01:50:37.199Z,7.79
2022-11-16T01:52:10.163Z,7.79
2022-11-16T01:53:41.996Z,7.78
2022-11-16T01:55:13.969Z,7.76
2022-11-16T01:56:46.079Z,7.75
2022-11-16T01:58:19.111Z,7.74
2022-11-16T01:59:52.837Z,7.73
2022-11-16T02:01:24.841Z,7.73
2022-11-16T02:02:56.736Z,7.73
2022-11-16T02:04:28.653Z,7.72
2022-11-16T02:06:19.001Z,7.71
2022-11-16T02:08:19.957Z,7.68
2022-11-16T02:09:54.569Z,7.68
2022-11-16T02:11:34.539Z,7.67
2022-11-16T02:13:11.739Z,7.68
2022-11-16T02:14:54.875Z,7.69
2022-11-16T02:16:36.792Z,7.68
2022-11-16T02:18:14.627Z,7.67
2022-11-16T02:19:55.775Z,7.67
2022-11-16T02:21:36.803Z,7.65
2022-11-16T02:23:08.549Z,7.65
2022-11-16T02:24:43.069Z,7.64
2022-11-16T02:26:19.040Z,7.62
2022-11-16T02:28:05.188Z,7.63
2022-11-16T02:29:47.218Z,7.63
2022-11-16T02:31:26.606Z,7.62
2022-11-16T02:33:02.672Z,7.61
2022-11-16T02:34:37.204Z,7.62
2022-11-16T02:36:09.820Z,7.62
2022-11-16T02:37:46.138Z,7.60
2022-11-16T02:39:19.169Z,7.57
2022-11-16T02:40:52.527Z,7.53
2022-11-16T02:42:28.685Z,7.52
2022-11-16T02:44:02.223Z,7.54
2022-11-16T02:45:34.586Z,7.55
2022-11-16T02:47:08.067Z,7.56
2022-11-16T02:48:41.754Z,7.55
2022-11-16T02:50:16.204Z,7.52
2022-11-16T02:51:48.172Z,7.51
2022-11-16T02:53:23.969Z,7.50
2022-11-16T02:54:55.858Z,7.50
2022-11-16T02:56:27.869Z,7.51
2022-11-16T02:58:01.488Z,7.53
2022-11-16T02:59:37.450Z,7.53
2022-11-16T03:01:10.273Z,7.52
2022-11-16T03:02:50.810Z,7.52
2022-11-16T03:04:25.331Z,7.49
2022-11-16T03:06:02.486Z,7.50
2022-11-16T03:07:44.564Z,7.48
2022-11-16T03:09:18.316Z,7.46
2022-11-16T03:11:29.031Z,7.44
2022-11-16T03:13:02.496Z,7.41
2022-11-16T03:14:48.144Z,7.40
2022-11-16T03:16:21.750Z,7.39
2022-11-16T03:17:53.747Z,7.38
2022-11-16T03:19:54.543Z,7.36
2022-11-16T03:21:46.667Z,7.37
2022-11-16T03:23:18.538Z,7.36
2022-11-16T03:24:50.486Z,7.35
2022-11-16T03:26:23.521Z,7.32
2022-11-16T03:28:03.208Z,7.33
2022-11-16T03:30:04.170Z,7.35
2022-11-16T03:31:37.667Z,7.34
2022-11-16T03:34:51.978Z,7.34
2022-11-16T03:36:33.169Z,7.33
2022-11-16T03:38:05.349Z,7.33
2022-11-16T03:39:38.116Z,7.33
2022-11-16T03:41:10.177Z,7.32
2022-11-16T03:42:42.196Z,7.31
2022-11-16T03:44:14.370Z,7.33
2022-11-16T03:45:46.152Z,7.34
2022-11-16T03:47:17.981Z,7.34
2022-11-16T03:48:54.136Z,7.33
2022-11-16T03:50:26.064Z,7.28
2022-11-16T03:51:57.925Z,7.28
2022-11-16T03:53:29.720Z,7.26
2022-11-16T03:55:01.540Z,7.26
2022-11-16T03:56:33.481Z,7.26
2022-11-16T03:58:05.571Z,7.24
2022-11-16T03:59:37.434Z,7.24
2022-11-16T04:01:09.457Z,7.26
2022-11-16T04:02:41.406Z,7.27
2022-11-16T04:04:36.125Z,7.29
2022-11-16T04:06:27.643Z,7.28
2022-11-16T04:08:17.808Z,7.30
2022-11-16T04:10:12.476Z,7.32
2022-11-16T04:12:04.340Z,7.31
2022-11-16T04:13:54.642Z,7.32
2022-11-16T04:15:45.001Z,7.33
2022-11-16T04:17:36.264Z,7.33
2022-11-16T04:19:28.018Z,7.32
2022-11-16T04:21:18.191Z,7.33
2022-11-16T04:23:08.858Z,7.32
2022-11-16T04:24:40.792Z,7.32
2022-11-16T04:26:12.747Z,7.29
2022-11-16T04:28:03.103Z,7.29
2022-11-16T04:29:35.019Z,7.29
2022-11-16T04:31:25.838Z,7.30
2022-11-16T04:33:16.087Z,7.28
2022-11-16T04:35:06.307Z,7.27
2022-11-16T04:38:17.459Z,7.18
2022-11-16T04:39:49.302Z,7.18
2022-11-16T04:41:39.672Z,7.17
2022-11-16T04:43:11.675Z,7.14
2022-11-16T04:45:01.921Z,7.13
2022-11-16T04:46:52.232Z,7.11
2022-11-16T04:48:24.122Z,7.09
2022-11-16T04:49:56.011Z,7.09
2022-11-16T04:51:28.021Z,7.08
2022-11-16T04:53:00.014Z,7.07
2022-11-16T04:54:31.929Z,7.08
2022-11-16T04:56:03.801Z,7.06
2022-11-16T04:57:35.683Z,7.06
2022-11-16T04:59:07.522Z,7.04
2022-11-16T05:00:39.658Z,7.02
2022-11-16T05:02:11.549Z,7.02
2022-11-16T05:03:46.273Z,6.99
2022-11-16T05:05:18.466Z,6.98
2022-11-16T05:06:50.392Z,6.95
2022-11-16T05:08:22.273Z,6.93
2022-11-16T05:09:54.275Z,6.94
2022-11-16T05:11:26.159Z,6.92
2022-11-16T05:12:58.021Z,6.89
2022-11-16T05:14:29.877Z,6.87
2022-11-16T05:16:01.798Z,6.87
2022-11-16T05:17:37.246Z,6.85
2022-11-16T05:19:27.778Z,6.87
2022-11-16T05:21:05.558Z,6.87
2022-11-16T05:22:37.434Z,6.89
2022-11-16T05:24:28.050Z,6.87
2022-11-16T05:25:59.961Z,6.87
2022-11-16T05:27:31.986Z,6.87
2022-11-16T05:29:03.907Z,6.86
2022-11-16T05:30:36.081Z,6.84
2022-11-16T05:32:08.335Z,6.85
2022-11-16T05:33:40.251Z,6.85
2022-11-16T05:35:12.444Z,6.84
2022-11-16T05:36:44.518Z,6.83
2022-11-16T05:38:19.258Z,6.84
2022-11-16T05:39:51.367Z,6.82
2022-11-16T05:41:23.241Z,6.83
2022-11-16T05:42:55.220Z,6.84
2022-11-16T05:44:27.241Z,6.82
2022-11-16T05:45:59.083Z,6.83
2022-11-16T05:47:31.031Z,6.85
2022-11-16T05:49:03.094Z,6.86
2022-11-16T05:50:39.885Z,6.85
2022-11-16T05:53:46.221Z,6.83
2022-11-16T05:55:18.105Z,6.79
2022-11-16T05:56:50.105Z,6.76
2022-11-16T05:58:22.012Z,6.72
2022-11-16T05:59:53.827Z,6.71
2022-11-16T06:01:26.045Z,6.74
2022-11-16T06:02:57.955Z,6.70
2022-11-16T06:04:30.018Z,6.73
2022-11-16T06:06:02.627Z,6.73
2022-11-16T06:07:34.549Z,6.74
2022-11-16T06:09:06.671Z,6.73
2022-11-16T06:10:38.524Z,6.76
2022-11-16T06:12:10.391Z,6.78
2022-11-16T06:13:42.248Z,6.77
2022-11-16T06:15:14.187Z,6.78
2022-11-16T06:16:46.048Z,6.78
2022-11-16T06:18:18.001Z,6.77
2022-11-16T06:19:50.001Z,6.76
2022-11-16T06:21:21.999Z,6.75
2022-11-16T06:22:54.211Z,6.76
2022-11-16T06:24:26.169Z,6.77
2022-11-16T06:25:58.166Z,6.78
2022-11-16T06:27:30.044Z,6.80
2022-11-16T06:29:01.954Z,6.79
2022-11-16T06:30:33.922Z,6.80
2022-11-16T06:32:05.893Z,6.82
2022-11-16T06:33:38.033Z,6.83
2022-11-16T06:35:10.460Z,6.81
2022-11-16T06:36:42.358Z,6.76
2022-11-16T06:38:19.022Z,6.74
2022-11-16T06:39:51.062Z,6.75
2022-11-16T06:41:23.030Z,6.76
2022-11-16T06:42:54.872Z,6.77
2022-11-16T06:44:26.840Z,6.74
2022-11-16T06:45:58.935Z,6.72
2022-11-16T06:47:30.851Z,6.73
2022-11-16T06:49:02.702Z,6.74
2022-11-16T06:50:35.254Z,6.75
2022-11-16T06:52:07.087Z,6.77
2022-11-16T06:53:39.150Z,6.74
2022-11-16T06:55:10.992Z,6.73
2022-11-16T06:56:42.842Z,6.71
2022-11-16T06:58:14.821Z,6.72
2022-11-16T06:59:46.748Z,6.72
2022-11-16T07:01:19.188Z,6.74
2022-11-16T07:02:51.383Z,6.73
2022-11-16T07:04:23.444Z,6.72
2022-11-16T07:05:55.812Z,6.68
2022-11-16T07:07:27.922Z,6.67
2022-11-16T07:08:59.804Z,6.67
2022-11-16T07:10:31.654Z,6.69
2022-11-16T07:12:04.366Z,6.70
2022-11-16T07:13:36.824Z,6.67
2022-11-16T07:15:08.971Z,6.71
2022-11-16T07:16:41.039Z,6.69
2022-11-16T07:18:13.232Z,6.72
2022-11-16T07:19:45.183Z,6.74
2022-11-16T07:22:48.884Z,6.79
2022-11-16T07:24:20.818Z,6.82
2022-11-16T07:25:52.734Z,6.84
2022-11-16T07:27:24.718Z,6.85
2022-11-16T07:28:56.662Z,6.85
2022-11-16T07:30:28.893Z,6.85
2022-11-16T07:32:01.053Z,6.84
2022-11-16T07:33:32.940Z,6.82
2022-11-16T07:35:14.781Z,6.86
2022-11-16T07:36:46.988Z,6.91
2022-11-16T07:38:18.900Z,6.94
2022-11-16T07:39:50.837Z,6.95
2022-11-16T07:41:22.834Z,6.96
2022-11-16T07:42:57.506Z,6.97
2022-11-16T07:44:29.628Z,6.98
2022-11-16T07:46:44.654Z,6.99
2022-11-16T07:48:01.276Z,6.98
2022-11-16T07:51:14.403Z,6.97
2022-11-16T07:52:46.996Z,7.00
2022-11-16T07:54:18.846Z,7.02
2022-11-16T07:55:54.070Z,7.08
2022-11-16T07:57:26.025Z,7.09
2022-11-16T07:58:59.412Z,7.10
2022-11-16T08:00:31.455Z,7.09
2022-11-16T08:02:03.321Z,7.14
2022-11-16T08:03:35.782Z,7.15
2022-11-16T08:05:07.840Z,7.17
2022-11-16T08:06:39.707Z,7.18
2022-11-16T08:08:12.049Z,7.23
2022-11-16T08:09:44.061Z,7.26
2022-11-16T08:11:15.989Z,7.32
2022-11-16T08:12:47.816Z,7.39
2022-11-16T08:14:19.863Z,7.46
2022-11-16T08:15:51.775Z,7.51
2022-11-16T08:17:23.751Z,7.60
2022-11-16T08:18:55.736Z,7.67
2022-11-16T08:22:05.607Z,7.81
2022-11-16T08:23:37.547Z,7.88
2022-11-16T08:25:10.032Z,7.94
2022-11-16T08:26:41.945Z,7.96
2022-11-16T08:28:14.881Z,8.01
2022-11-16T08:29:47.147Z,8.06
2022-11-16T08:31:21.284Z,8.12
2022-11-16T08:32:53.254Z,8.20
2022-11-16T08:34:25.331Z,8.28
2022-11-16T08:35:57.601Z,8.36
2022-11-16T08:37:29.568Z,8.45
2022-11-16T08:39:02.015Z,8.53
2022-11-16T08:40:33.976Z,8.58
2022-11-16T08:42:06.085Z,8.67
2022-11-16T08:43:42.585Z,8.76
2022-11-16T08:45:14.529Z,8.85
2022-11-16T08:46:46.584Z,8.93
2022-11-16T08:48:18.791Z,9.01
2022-11-16T08:49:50.670Z,9.08
2022-11-16T08:53:08.176Z,9.26
2022-11-16T08:54:41.668Z,9.34
2022-11-16T08:56:14.012Z,9.44
2022-11-16T08:57:46.064Z,9.49
2022-11-16T08:59:17.999Z,9.57
2022-11-16T09:00:49.899Z,9.65
2022-11-16T09:02:25.909Z,9.74
2022-11-16T09:03:58.043Z,9.83
2022-11-16T09:05:30.034Z,9.90
2022-11-16T09:07:02.134Z,9.99
2022-11-16T09:08:34.602Z,10.08
2022-11-16T09:10:07.459Z,10.18
2022-11-16T09:11:39.561Z,10.26
2022-11-16T09:13:11.531Z,10.36
2022-11-16T09:14:43.575Z,10.47
2022-11-16T09:16:18.466Z,10.60
2022-11-16T09:17:55.290Z,10.71
2022-11-16T09:19:27.484Z,10.86
2022-11-16T09:20:59.678Z,10.96
2022-11-16T09:22:31.661Z,11.07
2022-11-16T09:24:04.261Z,11.16
2022-11-16T09:25:36.381Z,11.27
2022-11-16T09:27:08.281Z,11.38
2022-11-16T09:28:43.255Z,11.47
2022-11-16T09:30:15.652Z,11.59
2022-11-16T09:31:47.811Z,11.71
2022-11-16T09:33:20.558Z,11.86
2022-11-16T09:34:52.548Z,12.01
2022-11-16T09:36:24.960Z,12.11
2022-11-16T09:37:56.924Z,12.23
2022-11-16T09:39:32.439Z,12.34
2022-11-16T09:43:10.276Z,12.59
2022-11-16T09:45:09.272Z,12.73
2022-11-16T09:46:47.405Z,12.91
2022-11-16T09:50:04.455Z,13.19
2022-11-16T09:51:36.599Z,13.33
2022-11-16T09:53:29.031Z,13.48
2022-11-16T09:55:02.155Z,13.63
2022-11-16T09:56:37.716Z,13.76
2022-11-16T09:58:12.583Z,13.86
2022-11-16T09:59:45.808Z,13.99
2022-11-16T10:01:27.060Z,14.17
2022-11-16T10:03:05.314Z,14.32
2022-11-16T10:04:44.332Z,14.49
2022-11-16T10:06:29.091Z,14.65
2022-11-16T10:08:07.333Z,14.75
2022-11-16T10:09:39.311Z,14.88
2022-11-16T10:11:24.389Z,15.00
2022-11-16T10:12:56.263Z,15.09
2022-11-16T10:14:47.206Z,15.14
2022-11-16T10:16:20.222Z,15.20
2022-11-16T10:18:12.205Z,15.25
2022-11-16T10:20:16.291Z,15.35
2022-11-16T10:22:00.156Z,15.46
2022-11-16T10:23:35.931Z,15.50
2022-11-16T10:25:17.760Z,15.55
2022-11-16T10:26:51.815Z,15.63
2022-11-16T10:28:26.817Z,15.67
2022-11-16T10:29:58.940Z,15.71
2022-11-16T10:31:46.155Z,15.91
2022-11-16T10:33:22.034Z,16.04
2022-11-16T10:35:14.567Z,16.10
2022-11-16T10:36:46.558Z,16.13
2022-11-16T10:38:20.346Z,16.16
2022-11-16T10:39:53.756Z,16.19
2022-11-16T10:41:33.176Z,16.24
2022-11-16T10:43:11.421Z,16.28
2022-11-16T10:45:19.115Z,16.36
2022-11-16T10:47:11.604Z,16.48
2022-11-16T10:48:47.340Z,16.55
2022-11-16T10:50:32.902Z,16.64
2022-11-16T10:52:04.958Z,16.86
2022-11-16T10:53:40.657Z,17.04
2022-11-16T10:55:15.728Z,17.14
2022-11-16T10:56:48.370Z,17.22
2022-11-16T10:58:20.196Z,17.27
2022-11-16T10:59:56.676Z,17.30
2022-11-16T11:01:58.177Z,17.30
2022-11-16T11:05:06.330Z,17.20
2022-11-16T11:06:38.360Z,17.18
2022-11-16T11:08:11.670Z,17.26
2022-11-16T11:09:43.697Z,17.27
2022-11-16T11:11:39.166Z,17.33
2022-11-16T11:13:11.077Z,17.40
2022-11-16T11:14:43.160Z,17.44
2022-11-16T11:16:16.808Z,17.50
2022-11-16T11:17:49.579Z,17.55
2022-11-16T11:19:25.866Z,17.62
2022-11-16T11:21:19.600Z,17.70
2022-11-16T11:23:01.884Z,17.74
2022-11-16T11:24:49.028Z,17.85
2022-11-16T11:26:31.720Z,17.95
2022-11-16T11:28:17.294Z,18.06
2022-11-16T11:29:51.558Z,18.15
2022-11-16T11:31:27.665Z,18.20
2022-11-16T11:32:59.814Z,18.28
2022-11-16T11:34:32.904Z,18.36
2022-11-16T11:36:05.995Z,18.37
2022-11-16T11:37:38.152Z,18.34
2022-11-16T11:39:13.257Z,18.29
2022-11-16T11:40:57.821Z,18.26
2022-11-16T11:42:29.724Z,18.22
2022-11-16T11:44:03.608Z,18.22
2022-11-16T11:45:38.468Z,18.23
2022-11-16T11:49:10.121Z,18.33
2022-11-16T11:50:45.192Z,18.38
2022-11-16T11:52:22.171Z,18.43
2022-11-16T11:53:55.123Z,18.50
2022-11-16T11:55:27.212Z,18.56
2022-11-16T11:56:59.410Z,18.63
2022-11-16T11:58:35.862Z,18.69
2022-11-16T12:00:09.544Z,18.74
2022-11-16T12:01:55.458Z,18.82
2022-11-16T12:03:31.986Z,18.91
2022-11-16T12:05:07.177Z,18.95
2022-11-16T12:06:58.014Z,18.96
2022-11-16T12:08:34.950Z,19.01
2022-11-16T12:10:12.868Z,19.04
2022-11-16T12:12:03.300Z,19.09
2022-11-16T12:13:44.374Z,19.15
2022-11-16T12:15:16.454Z,19.16
2022-11-16T12:16:53.920Z,19.10
2022-11-16T12:18:35.167Z,18.98
2022-11-16T12:20:26.896Z,18.91
2022-11-16T12:22:01.795Z,18.86
2022-11-16T12:23:37.103Z,18.78
2022-11-16T12:25:18.346Z,18.67
2022-11-16T12:27:02.965Z,18.60
2022-11-16T12:28:48.422Z,18.53
2022-11-16T12:30:22.863Z,18.43
2022-11-16T12:33:34.434Z,18.24
2022-11-16T12:35:06.739Z,18.23
2022-11-16T12:36:51.319Z,18.23
2022-11-16T12:38:26.673Z,18.20
2022-11-16T12:40:17.119Z,18.14
2022-11-16T12:41:53.925Z,18.11
2022-11-16T12:43:35.107Z,18.05
2022-11-16T12:45:17.031Z,18.02
2022-11-16T12:46:52.096Z,18.01
2022-11-16T12:48:33.849Z,17.96
2022-11-16T12:50:15.652Z,17.92
2022-11-16T12:51:50.476Z,17.89
2022-11-16T12:53:34.326Z,17.89
2022-11-16T12:55:28.249Z,17.88
2022-11-16T12:57:08.537Z,17.80
2022-11-16T12:58:46.081Z,17.80
2022-11-16T13:00:18.890Z,17.76
2022-11-16T13:01:50.951Z,17.73
2022-11-16T13:03:39.974Z,17.70
2022-11-16T13:05:16.896Z,17.67
2022-11-16T13:06:50.805Z,17.63
2022-11-16T13:08:33.381Z,17.59
2022-11-16T13:10:14.555Z,17.56
2022-11-16T13:11:48.700Z,17.54
2022-11-16T13:13:39.582Z,17.51
2022-11-16T13:15:20.028Z,17.48
2022-11-16T13:16:52.081Z,17.44
2022-11-16T13:18:24.205Z,17.42
2022-11-16T13:20:15.247Z,17.38
2022-11-16T13:21:47.642Z,17.36
2022-11-16T13:23:31.859Z,17.36
2022-11-16T13:25:06.772Z,17.34
2022-11-16T13:26:41.187Z,17.33
2022-11-16T13:28:33.177Z,17.33
2022-11-16T13:30:15.337Z,17.35
2022-11-16T13:33:29.315Z,17.33
2022-11-16T13:35:01.204Z,17.31
2022-11-16T13:36:33.111Z,17.31
2022-11-16T13:38:04.991Z,17.29
2022-11-16T13:39:55.140Z,17.27
2022-11-16T13:41:28.840Z,17.23
2022-11-16T13:43:09.788Z,17.23
2022-11-16T13:44:41.887Z,17.19
2022-11-16T13:46:27.680Z,17.16
2022-11-16T13:48:10.886Z,17.12
2022-11-16T13:49:49.229Z,17.10
2022-11-16T13:51:21.904Z,17.06
2022-11-16T13:53:46.226Z,17.02
2022-11-16T13:54:55.458Z,16.97
2022-11-16T13:56:29.573Z,16.94
2022-11-16T13:58:02.926Z,16.91
2022-11-16T13:59:35.464Z,16.86
2022-11-16T14:01:10.996Z,16.84
2022-11-16T14:02:43.424Z,16.82
2022-11-16T14:04:33.963Z,16.78
2022-11-16T14:06:07.246Z,16.73
2022-11-16T14:07:43.290Z,16.69
2022-11-16T14:09:33.905Z,16.66
2022-11-16T14:11:06.549Z,16.62
2022-11-16T14:12:38.748Z,16.62
2022-11-16T14:14:33.203Z,16.57
2022-11-16T14:16:17.673Z,16.55
2022-11-16T14:17:53.845Z,16.52
2022-11-16T14:19:49.354Z,16.49
2022-11-16T14:21:36.304Z,16.45
2022-11-16T14:23:26.269Z,16.44
2022-11-16T14:25:14.932Z,16.43
2022-11-16T14:26:46.989Z,16.38
2022-11-16T14:28:24.800Z,16.35
2022-11-16T14:29:56.775Z,16.33
2022-11-16T14:33:01.500Z,16.26
2022-11-16T14:34:44.056Z,16.22
2022-11-16T14:36:15.991Z,16.18
2022-11-16T14:37:55.960Z,16.14
2022-11-16T14:39:32.569Z,16.10
2022-11-16T14:41:10.369Z,16.06
2022-11-16T14:43:10.014Z,16.01
2022-11-16T14:44:39.542Z,15.95
2022-11-16T14:46:17.990Z,15.92
2022-11-16T14:47:49.977Z,15.87
2022-11-16T14:49:22.321Z,15.81
2022-11-16T14:51:07.575Z,15.77
2022-11-16T14:52:44.299Z,15.73
2022-11-16T14:54:31.148Z,15.68
2022-11-16T14:56:15.963Z,15.63
2022-11-16T14:57:50.279Z,15.55
2022-11-16T14:59:22.494Z,15.51
2022-11-16T15:00:55.823Z,15.47
2022-11-16T15:02:27.731Z,15.41
2022-11-16T15:04:03.720Z,15.38
2022-11-16T15:07:13.383Z,15.27
2022-11-16T15:08:46.126Z,15.24
2022-11-16T15:10:19.417Z,15.19
2022-11-16T15:12:09.695Z,15.14
2022-11-16T15:13:41.668Z,15.09
2022-11-16T15:15:13.597Z,15.03
2022-11-16T15:16:49.550Z,14.98
2022-11-16T15:18:23.504Z,14.93
2022-11-16T15:19:56.223Z,14.90
2022-11-16T15:21:28.982Z,14.85
2022-11-16T15:23:01.518Z,14.80
2022-11-16T15:24:34.298Z,14.73
2022-11-16T15:26:06.361Z,14.70
2022-11-16T15:27:39.478Z,14.65
2022-11-16T15:29:15.322Z,14.59
2022-11-16T15:30:49.637Z,14.54
2022-11-16T15:32:21.735Z,14.50
2022-11-16T15:33:53.912Z,14.43
2022-11-16T15:35:32.800Z,14.37
2022-11-16T15:37:04.834Z,14.31
2022-11-16T15:38:38.001Z,14.26
2022-11-16T15:41:42.776Z,14.17
2022-11-16T15:43:14.794Z,14.11
2022-11-16T15:44:46.749Z,14.06
2022-11-16T15:46:18.685Z,14.01
2022-11-16T15:47:54.089Z,13.98
2022-11-16T15:49:29.161Z,13.94
2022-11-16T15:51:05.070Z,13.91
2022-11-16T15:52:46.120Z,13.86
2022-11-16T15:54:54.835Z,13.83
2022-11-16T15:56:26.738Z,13.76
2022-11-16T15:58:14.931Z,13.72
2022-11-16T15:59:48.150Z,13.67
2022-11-16T16:01:20.528Z,13.63
2022-11-16T16:02:52.559Z,13.60
2022-11-16T16:04:24.730Z,13.57
2022-11-16T16:05:56.710Z,13.55
2022-11-16T16:07:42.109Z,13.53
2022-11-16T16:09:19.152Z,13.49
2022-11-16T16:11:09.916Z,13.47
2022-11-16T16:12:51.646Z,13.44
2022-11-16T16:14:25.006Z,13.40
2022-11-16T16:16:15.604Z,13.36
2022-11-16T16:17:47.596Z,13.31
2022-11-16T16:19:28.572Z,13.26
2022-11-16T16:21:00.652Z,13.22
2022-11-16T16:22:38.604Z,13.16
2022-11-16T16:24:12.303Z,13.13
2022-11-16T16:25:50.145Z,13.11
2022-11-16T16:27:26.372Z,13.07
2022-11-16T16:30:40.091Z,13.00
2022-11-16T16:32:13.580Z,12.96
2022-11-16T16:33:45.881Z,12.93
2022-11-16T16:35:18.767Z,12.90
2022-11-16T16:36:51.107Z,12.87
2022-11-16T16:38:22.983Z,12.84
2022-11-16T16:39:54.918Z,12.82
2022-11-16T16:41:26.994Z,12.79
2022-11-16T16:42:59.320Z,12.76
2022-11-16T16:46:04.308Z,12.73
2022-11-16T16:47:36.251Z,12.68
2022-11-16T16:49:08.469Z,12.66
2022-11-16T16:50:40.473Z,12.64
2022-11-16T16:52:13.124Z,12.64
2022-11-16T16:53:45.084Z,12.64
2022-11-16T16:55:17.053Z,12.63
2022-11-16T16:56:48.917Z,12.63
2022-11-16T16:58:21.123Z,12.62
2022-11-16T16:59:53.148Z,12.61
2022-11-16T17:01:26.900Z,12.61
2022-11-16T17:02:58.969Z,12.61
2022-11-16T17:04:30.891Z,12.58
2022-11-16T17:06:03.002Z,12.61
2022-11-16T17:07:35.414Z,12.62
2022-11-16T17:09:07.380Z,12.62
2022-11-16T17:10:39.875Z,12.61
2022-11-16T17:12:11.836Z,12.62
2022-11-16T17:13:43.794Z,12.60
2022-11-16T17:15:19.331Z,12.58
2022-11-16T17:16:51.947Z,12.58
2022-11-16T17:18:23.998Z,12.58
2022-11-16T17:19:56.160Z,12.59
2022-11-16T17:21:28.241Z,12.60
2022-11-16T17:23:00.152Z,12.60
2022-11-16T17:24:32.112Z,12.60
2022-11-16T17:26:05.252Z,12.60
2022-11-16T17:27:37.228Z,12.59
2022-11-16T17:29:09.104Z,12.57
2022-11-16T17:30:41.112Z,12.58
2022-11-16T17:32:13.082Z,12.59
2022-11-16T17:33:45.048Z,12.58
2022-11-16T17:35:17.469Z,12.58
2022-11-16T17:36:49.766Z,12.58
2022-11-16T17:38:21.873Z,12.57
2022-11-16T17:39:54.075Z,12.56
2022-11-16T17:41:26.215Z,12.55
2022-11-16T17:42:58.337Z,12.56
2022-11-16T17:44:30.719Z,12.57
2022-11-16T17:46:06.631Z,12.59
2022-11-16T17:47:39.715Z,12.62
2022-11-16T17:49:11.756Z,12.63
2022-11-16T17:50:50.351Z,12.65
2022-11-16T17:52:22.232Z,12.65
2022-11-16T17:53:54.122Z,12.68
2022-11-16T17:55:26.134Z,12.69
2022-11-16T17:56:58.063Z,12.68
2022-11-16T17:58:30.539Z,12.72
2022-11-16T18:00:02.527Z,12.72
2022-11-16T18:01:34.661Z,12.74
2022-11-16T18:03:06.752Z,12.75
2022-11-16T18:04:38.623Z,12.77
2022-11-16T18:06:14.961Z,12.80
2022-11-16T18:07:47.278Z,12.81
2022-11-16T18:09:19.294Z,12.82
2022-11-16T18:10:51.223Z,12.83
2022-11-16T18:12:23.203Z,12.84
2022-11-16T18:13:55.956Z,12.84
2022-11-16T18:15:29.171Z,12.85
2022-11-16T18:17:01.338Z,12.85
2022-11-16T18:18:33.798Z,12.85
2022-11-16T18:20:07.445Z,12.84
2022-11-16T18:21:40.026Z,12.85
2022-11-16T18:23:12.137Z,12.84
2022-11-16T18:24:44.130Z,12.83
2022-11-16T18:26:17.232Z,12.79
2022-11-16T18:27:52.997Z,12.78
2022-11-16T18:29:24.954Z,12.78
2022-11-16T18:31:06.549Z,12.76
2022-11-16T18:32:38.730Z,12.76
2022-11-16T18:35:43.922Z,12.78
2022-11-16T18:37:15.821Z,12.77
2022-11-16T18:38:47.748Z,12.76
2022-11-16T18:40:19.960Z,12.76
2022-11-16T18:41:55.295Z,12.76
2022-11-16T18:43:27.492Z,12.76
2022-11-16T18:44:59.459Z,12.77
2022-11-16T18:46:32.553Z,12.76
2022-11-16T18:48:04.705Z,12.74
2022-11-16T18:49:38.900Z,12.72
2022-11-16T18:51:11.615Z,12.73
2022-11-16T18:52:46.872Z,12.72
2022-11-16T18:54:18.791Z,12.69
2022-11-16T18:55:56.527Z,12.68
2022-11-16T18:57:30.251Z,12.67
2022-11-16T18:59:02.567Z,12.64
2022-11-16T19:00:34.549Z,12.63
2022-11-16T19:02:06.468Z,12.61
2022-11-16T19:05:10.222Z,12.59
2022-11-16T19:06:42.255Z,12.58
2022-11-16T19:08:15.040Z,12.58
2022-11-16T19:09:46.865Z,12.58
2022-11-16T19:11:18.945Z,12.60
2022-11-16T19:12:50.876Z,12.59
2022-11-16T19:14:22.940Z,12.60
2022-11-16T19:15:57.611Z,12.59
2022-11-16T19:17:29.433Z,12.59
2022-11-16T19:19:04.216Z,12.60
2022-11-16T19:20:36.184Z,12.62
2022-11-16T19:22:08.144Z,12.61
2022-11-16T19:23:44.953Z,12.61
2022-11-16T19:25:16.898Z,12.59
2022-11-16T19:26:49.113Z,12.57
2022-11-16T19:28:21.026Z,12.55
2022-11-16T19:29:52.894Z,12.55
2022-11-16T19:31:29.208Z,12.53
2022-11-16T19:34:34.068Z,12.54
2022-11-16T19:36:13.086Z,12.53
2022-11-16T19:37:45.053Z,12.53
2022-11-16T19:39:17.269Z,12.54
2022-11-16T19:40:49.992Z,12.54
2022-11-16T19:42:22.015Z,12.54
2022-11-16T19:43:57.540Z,12.55
2022-11-16T19:45:29.747Z,12.58
2022-11-16T19:47:01.833Z,12.59
2022-11-16T19:48:34.040Z,12.62
2022-11-16T19:50:07.343Z,12.68
2022-11-16T19:51:39.190Z,12.73
2022-11-16T19:53:11.337Z,12.77
2022-11-16T19:54:43.276Z,12.79
2022-11-16T19:56:16.001Z,12.78
2022-11-16T19:57:48.481Z,12.76
2022-11-16T19:59:20.432Z,12.78
2022-11-16T20:00:52.387Z,12.83
2022-11-16T20:02:24.643Z,12.86
2022-11-16T20:03:57.565Z,12.87
2022-11-16T20:05:30.615Z,12.90
2022-11-16T20:07:02.524Z,12.92
2022-11-16T20:10:13.425Z,12.93
2022-11-16T20:11:45.411Z,12.94
2022-11-16T20:13:18.398Z,12.93
2022-11-16T20:14:50.423Z,12.93
2022-11-16T20:16:23.844Z,12.91
2022-11-16T20:17:55.758Z,12.91
2022-11-16T20:19:28.068Z,12.91
2022-11-16T20:21:05.386Z,12.92
2022-11-16T20:22:37.424Z,12.92
2022-11-16T20:24:13.803Z,12.93
2022-11-16T20:25:45.652Z,12.93
2022-11-16T20:27:17.462Z,12.92
2022-11-16T20:28:51.493Z,12.90
2022-11-16T20:30:23.330Z,12.89
2022-11-16T20:31:55.305Z,12.87
2022-11-16T20:33:27.126Z,12.86
2022-11-16T20:34:58.972Z,12.85
2022-11-16T20:36:31.594Z,12.84
2022-11-16T20:38:03.513Z,12.83
2022-11-16T20:39:36.497Z,12.79
2022-11-16T20:41:11.578Z,12.76
2022-11-16T20:42:43.462Z,12.76
2022-11-16T20:44:18.609Z,12.77
2022-11-16T20:45:53.854Z,12.81
2022-11-16T20:47:25.723Z,12.84
2022-11-16T20:48:59.650Z,12.86
2022-11-16T20:50:31.692Z,12.89
2022-11-16T20:55:49.610Z,12.79
2022-11-16T20:57:21.586Z,12.73
2022-11-16T20:58:53.637Z,12.68
2022-11-16T21:00:26.490Z,12.64
2022-11-16T21:01:58.474Z,12.61
2022-11-16T21:03:30.491Z,12.58
2022-11-16T21:05:02.489Z,12.55
2022-11-16T21:06:34.451Z,12.53
2022-11-16T21:08:06.630Z,12.55
2022-11-16T21:09:58.758Z,12.53
2022-11-16T21:11:31.257Z,12.52
2022-11-16T21:13:21.545Z,12.50
2022-11-16T21:14:53.589Z,12.47
2022-11-16T21:16:25.458Z,12.45
2022-11-16T21:17:57.374Z,12.42
2022-11-16T21:19:29.208Z,12.41
2022-11-16T21:21:08.206Z,12.39
2022-11-16T21:24:19.929Z,12.37
2022-11-16T21:25:51.801Z,12.35
2022-11-16T21:27:23.655Z,12.34